Hardin, Missouri
Current Conditions -  °F | °C
As of 4:15 AM on Friday 28 Nov 2014 (Local Time) from KGPH Reporting Station
Clear Clear  
Wind Chill: 25°   Ceiling: Unl
Heat Index: 30°   Visibility: 10mi
Dew Point: 25°   Wind: 5mph
Humidity: 80%   Direction: 120°ESE
Pressure: 30.13"   Gusts: NA
Location:  39.27°N, 93.83°W
Report Text: KGPH 281015Z AUTO 12004KT 10SM CLR M01/M04 A3013 RMK AO2
Loading
Personal Weather Stations






























Interactive Weather Map New forecast layout! Learn more

10-Day Weather Forecast

Advertisements
Track Severe Weather on mobile